Time;durP1;ratioP1;P1;durP2;ratioP2;P2;SDS_P1;SDS_P2;PMS_P1;PMS_P2;Temp;Humidity;BMP_temperature;BMP_pressure;BME280_temperature;BME280_humidity;BME280_pressure;Samples;Min_cycle;Max_cycle;Signal;HPM_P1;HPM_P2
2022/10/26 00:01:37;;;;;;;;;;;;;;;11.16;100.00;97741.89;107644;1266;71878;-69
2022/10/26 00:04:07;;;;;;;;;;;;;;;11.16;100.00;97740.34;107658;1269;68338;-69
2022/10/26 00:06:37;;;;;;;;;;;;;;;11.16;100.00;97743.46;107650;1266;68509;-69
2022/10/26 00:09:06;;;;;;;;;;;;;;;11.15;100.00;97745.98;107634;1270;59670;-69
2022/10/26 00:11:36;;;;;;;;;;;;;;;11.14;100.00;97739.96;107652;1268;59786;-69
2022/10/26 00:14:05;;;;;;;;;;;;;;;11.11;100.00;97737.07;107651;1266;71376;-69
2022/10/26 00:16:36;;;;;;;;;;;;;;;11.07;100.00;97736.30;107645;1270;69252;-69
2022/10/26 00:19:06;;;;;;;;;;;;;;;11.03;100.00;97730.98;107637;1270;69222;-71
2022/10/26 00:21:35;;;;;;;;;;;;;;;11.00;100.00;97739.55;107620;1271;59760;-71
2022/10/26 00:24:05;;;;;;;;;;;;;;;10.96;100.00;97740.17;107660;1269;59630;-71
2022/10/26 00:26:35;;;;;;;;;;;;;;;10.92;100.00;97740.98;107676;1269;71397;-71
2022/10/26 00:29:05;;;;;;;;;;;;;;;10.88;100.00;97739.66;107674;1269;69251;-71
2022/10/26 00:31:34;;;;;;;;;;;;;;;10.86;100.00;97740.02;107631;1273;69586;-71
2022/10/26 00:34:04;;;;;;;;;;;;;;;10.81;100.00;97746.81;107664;1268;59805;-68
2022/10/26 00:36:34;;;;;;;;;;;;;;;10.76;100.00;97751.82;107653;1270;59766;-70
2022/10/26 00:39:03;;;;;;;;;;;;;;;10.71;100.00;97748.66;107649;1269;70792;-71
2022/10/26 00:41:33;;;;;;;;;;;;;;;10.67;100.00;97751.20;107662;1266;69252;-71
2022/10/26 00:44:21;;;;;;;;;;;;;;;10.65;100.00;97757.77;107611;1270;69714;-70
2022/10/26 00:46:51;;;;;;;;;;;;;;;10.64;100.00;97763.42;107639;1268;60087;-70
2022/10/26 00:49:21;;;;;;;;;;;;;;;10.65;100.00;97764.64;107658;1269;59773;-70
2022/10/26 00:51:52;;;;;;;;;;;;;;;10.65;100.00;97762.69;107699;1269;70473;-70
2022/10/26 00:54:21;;;;;;;;;;;;;;;10.65;100.00;97764.21;107656;1270;68532;-70
2022/10/26 00:56:53;;;;;;;;;;;;;;;10.67;100.00;97762.52;107637;1268;68273;-70
2022/10/26 00:59:24;;;;;;;;;;;;;;;10.66;100.00;97757.02;107667;1270;59720;-70
2022/10/26 01:01:56;;;;;;;;;;;;;;;10.66;100.00;97760.17;107657;1270;59704;-70
2022/10/26 01:04:26;;;;;;;;;;;;;;;10.66;100.00;97754.56;107632;1271;70588;-70
2022/10/26 01:06:56;;;;;;;;;;;;;;;10.67;100.00;97753.45;107669;1270;68984;-70
2022/10/26 01:09:26;;;;;;;;;;;;;;;10.68;100.00;97753.05;107677;1268;69514;-70
2022/10/26 01:11:55;;;;;;;;;;;;;;;10.66;100.00;97749.69;107645;1270;59775;-70
2022/10/26 01:14:26;;;;;;;;;;;;;;;10.64;100.00;97745.86;107682;1268;59695;-70
2022/10/26 01:17:13;;;;;;;;;;;;;;;10.62;100.00;97742.52;107658;1269;70576;-70
2022/10/26 01:20:00;;;;;;;;;;;;;;;10.60;100.00;97746.66;107664;1269;69923;-70
2022/10/26 01:22:30;;;;;;;;;;;;;;;10.60;100.00;97744.74;107648;1265;69156;-70
2022/10/26 01:25:13;;;;;;;;;;;;;;;10.59;100.00;97745.17;107657;1269;59766;-70
2022/10/26 01:27:47;;;;;;;;;;;;;;;10.58;100.00;97742.26;107677;1268;59709;-70
2022/10/26 01:30:18;;;;;;;;;;;;;;;10.58;100.00;97740.50;107660;1269;71436;-69
2022/10/26 01:33:06;;;;;;;;;;;;;;;10.58;100.00;97734.56;107671;1269;69035;-70
2022/10/26 01:35:35;;;;;;;;;;;;;;;10.58;100.00;97735.08;107672;1270;69427;-70
2022/10/26 01:38:07;;;;;;;;;;;;;;;10.61;100.00;97736.67;107643;1267;59718;-70
2022/10/26 01:40:42;;;;;;;;;;;;;;;10.63;100.00;97735.83;107610;1270;59696;-70
2022/10/26 01:43:12;;;;;;;;;;;;;;;10.64;100.00;97740.79;107574;1270;71872;-70
2022/10/26 01:45:44;;;;;;;;;;;;;;;10.65;100.00;97742.80;107685;1269;69301;-70
2022/10/26 01:48:16;;;;;;;;;;;;;;;10.66;100.00;97739.77;107668;1270;68440;-70
2022/10/26 01:50:47;;;;;;;;;;;;;;;10.66;100.00;97737.52;107633;1270;59806;-70
2022/10/26 01:53:18;;;;;;;;;;;;;;;10.67;100.00;97735.67;107680;1268;59781;-70
2022/10/26 01:55:52;;;;;;;;;;;;;;;10.68;100.00;97738.39;107663;1269;70887;-70
2022/10/26 01:58:36;;;;;;;;;;;;;;;10.68;100.00;97738.79;107623;1268;69503;-70
2022/10/26 02:01:18;;;;;;;;;;;;;;;10.65;100.00;97737.92;107631;1268;69921;-70
2022/10/26 02:03:51;;;;;;;;;;;;;;;10.61;100.00;97736.48;107637;1268;59781;-70
2022/10/26 02:06:50;;;;;;;;;;;;;;;10.56;100.00;97739.46;107648;1270;59706;-70
2022/10/26 02:09:25;;;;;;;;;;;;;;;10.50;100.00;97746.13;107595;1268;72179;-70
2022/10/26 02:11:57;;;;;;;;;;;;;;;10.43;100.00;97743.44;107654;1269;68384;-70
2022/10/26 02:14:32;;;;;;;;;;;;;;;10.38;100.00;97742.23;107651;1265;67881;-70
2022/10/26 02:17:06;;;;;;;;;;;;;;;10.35;100.00;97744.52;107651;1269;60116;-69
2022/10/26 02:19:42;;;;;;;;;;;;;;;10.32;100.00;97748.38;107646;1270;59680;-69
2022/10/26 02:22:21;;;;;;;;;;;;;;;10.28;100.00;97747.05;107675;1268;71434;-70
2022/10/26 02:24:51;;;;;;;;;;;;;;;10.24;100.00;97748.71;107654;1270;68238;-70
2022/10/26 02:27:30;;;;;;;;;;;;;;;10.19;100.00;97753.30;107628;1266;69284;-71
2022/10/26 02:30:01;;;;;;;;;;;;;;;10.17;100.00;97753.11;107572;1266;59748;-69
2022/10/26 02:32:34;;;;;;;;;;;;;;;10.15;100.00;97756.04;107674;1269;59721;-69
2022/10/26 02:35:04;;;;;;;;;;;;;;;10.14;100.00;97760.30;107659;1268;71416;-69
2022/10/26 02:37:35;;;;;;;;;;;;;;;10.14;100.00;97765.56;107670;1268;68512;-69
2022/10/26 02:40:08;;;;;;;;;;;;;;;10.10;100.00;97767.14;107635;1266;69080;-69
2022/10/26 02:42:41;;;;;;;;;;;;;;;10.08;100.00;97768.38;107637;1266;59772;-70
2022/10/26 02:45:14;;;;;;;;;;;;;;;10.06;100.00;97772.98;107678;1268;59703;-70
2022/10/26 02:47:45;;;;;;;;;;;;;;;10.08;100.00;97772.02;107666;1270;69842;-70
2022/10/26 02:50:17;;;;;;;;;;;;;;;10.11;100.00;97767.98;107670;1268;69241;-70
2022/10/26 02:53:00;;;;;;;;;;;;;;;10.13;100.00;97769.45;107647;1268;69184;-70
2022/10/26 02:55:34;;;;;;;;;;;;;;;10.14;100.00;97772.82;107648;1266;59761;-70
2022/10/26 02:58:07;;;;;;;;;;;;;;;10.14;100.00;97775.23;107652;1269;59773;-70
2022/10/26 03:00:37;;;;;;;;;;;;;;;10.14;100.00;97775.94;107652;1266;70613;-70
2022/10/26 03:03:07;;;;;;;;;;;;;;;10.13;100.00;97780.04;107674;1269;69804;-70
2022/10/26 03:05:36;;;;;;;;;;;;;;;10.13;100.00;97783.83;107613;1267;68945;-70
2022/10/26 03:08:05;;;;;;;;;;;;;;;10.14;100.00;97776.50;107650;1268;59735;-69
2022/10/26 03:10:39;;;;;;;;;;;;;;;10.13;100.00;97776.73;107625;1270;59724;-70
2022/10/26 03:13:08;;;;;;;;;;;;;;;10.10;100.00;97780.23;107642;1269;71291;-70
2022/10/26 03:15:38;;;;;;;;;;;;;;;10.09;100.00;97778.25;107676;1264;69095;-71
2022/10/26 03:18:08;;;;;;;;;;;;;;;10.07;100.00;97783.77;107652;1269;68763;-72
2022/10/26 03:20:37;;;;;;;;;;;;;;;10.01;100.00;97784.45;107668;1269;59793;-70
2022/10/26 03:23:07;;;;;;;;;;;;;;;9.98;100.00;97788.14;107624;1266;59772;-70
2022/10/26 03:25:37;;;;;;;;;;;;;;;9.93;100.00;97788.27;107673;1269;71575;-69
2022/10/26 03:28:06;;;;;;;;;;;;;;;9.88;100.00;97790.88;107669;1266;67478;-70
2022/10/26 03:30:35;;;;;;;;;;;;;;;9.82;100.00;97791.61;107641;1270;70306;-69
2022/10/26 03:33:05;;;;;;;;;;;;;;;9.76;100.00;97789.24;107658;1266;59740;-70
2022/10/26 03:35:36;;;;;;;;;;;;;;;9.70;100.00;97790.48;107651;1269;59740;-70
2022/10/26 03:38:05;;;;;;;;;;;;;;;9.64;100.00;97796.25;107630;1266;71399;-70
2022/10/26 03:40:35;;;;;;;;;;;;;;;9.59;100.00;97791.48;107644;1268;68250;-70
2022/10/26 03:43:05;;;;;;;;;;;;;;;9.56;100.00;97797.42;107633;1269;68497;-70
2022/10/26 03:45:34;;;;;;;;;;;;;;;9.55;100.00;97802.91;107644;1268;59719;-70
2022/10/26 03:48:04;;;;;;;;;;;;;;;9.54;100.00;97797.94;107650;1265;59640;-70
2022/10/26 03:50:34;;;;;;;;;;;;;;;9.55;100.00;97795.23;107632;1269;70746;-70
2022/10/26 03:53:04;;;;;;;;;;;;;;;9.57;100.00;97800.66;107664;1266;68617;-70
2022/10/26 03:55:33;;;;;;;;;;;;;;;9.59;100.00;97798.96;107627;1269;68510;-70
2022/10/26 03:58:03;;;;;;;;;;;;;;;9.60;100.00;97799.95;107630;1266;59772;-70
2022/10/26 04:00:32;;;;;;;;;;;;;;;9.61;100.00;97805.82;107627;1266;59684;-70
2022/10/26 04:03:03;;;;;;;;;;;;;;;9.62;100.00;97805.92;107608;1266;71879;-70
2022/10/26 04:05:31;;;;;;;;;;;;;;;9.63;100.00;97807.75;107650;1264;69047;-70
2022/10/26 04:08:04;;;;;;;;;;;;;;;9.66;100.00;97811.43;107642;1269;69287;-70
2022/10/26 04:10:33;;;;;;;;;;;;;;;9.65;100.00;97816.52;107640;1269;59760;-70
2022/10/26 04:13:03;;;;;;;;;;;;;;;9.61;100.00;97813.64;107663;1264;59784;-70
2022/10/26 04:15:32;;;;;;;;;;;;;;;9.57;100.00;97810.77;107683;1268;72023;-70
2022/10/26 04:18:02;;;;;;;;;;;;;;;9.55;100.00;97809.17;107646;1269;69750;-70
2022/10/26 04:20:33;;;;;;;;;;;;;;;9.53;100.00;97808.23;107639;1268;69244;-70
2022/10/26 04:23:03;;;;;;;;;;;;;;;9.54;100.00;97810.45;107678;1268;59787;-70
2022/10/26 04:25:32;;;;;;;;;;;;;;;9.54;100.00;97812.50;107658;1268;59719;-70
2022/10/26 04:28:02;;;;;;;;;;;;;;;9.56;100.00;97814.66;107653;1266;71261;-70
2022/10/26 04:30:32;;;;;;;;;;;;;;;9.56;100.00;97811.88;107674;1268;69058;-70
2022/10/26 04:33:02;;;;;;;;;;;;;;;9.58;100.00;97813.31;107656;1269;69778;-70
2022/10/26 04:35:32;;;;;;;;;;;;;;;9.61;100.00;97814.52;107671;1264;59694;-70
2022/10/26 04:38:03;;;;;;;;;;;;;;;9.64;100.00;97815.02;107673;1269;59785;-70
2022/10/26 04:40:33;;;;;;;;;;;;;;;9.65;100.00;97815.30;107655;1268;70629;-70
2022/10/26 04:43:02;;;;;;;;;;;;;;;9.67;100.00;97816.54;107665;1268;69255;-70
2022/10/26 04:45:31;;;;;;;;;;;;;;;9.69;100.00;97819.05;107674;1269;69881;-70
2022/10/26 04:48:05;;;;;;;;;;;;;;;9.73;100.00;97824.42;107664;1267;59795;-70
2022/10/26 04:50:33;;;;;;;;;;;;;;;9.75;100.00;97823.91;107643;1269;59704;-70
2022/10/26 04:53:04;;;;;;;;;;;;;;;9.79;100.00;97827.47;107676;1268;70968;-70
2022/10/26 04:55:33;;;;;;;;;;;;;;;9.84;100.00;97832.75;107624;1270;68247;-70
2022/10/26 04:58:01;;;;;;;;;;;;;;;9.86;100.00;97837.30;107670;1268;69294;-70
2022/10/26 05:00:31;;;;;;;;;;;;;;;9.86;100.00;97838.70;107668;1269;59781;-70
2022/10/26 05:03:01;;;;;;;;;;;;;;;9.87;100.00;97841.61;107662;1269;59697;-70
2022/10/26 05:05:30;;;;;;;;;;;;;;;9.89;100.00;97844.07;107629;1268;71810;-70
2022/10/26 05:07:59;;;;;;;;;;;;;;;9.91;100.00;97847.77;107617;1266;69424;-70
2022/10/26 05:10:27;;;;;;;;;;;;;;;9.92;100.00;97849.81;107637;1268;68503;-70
2022/10/26 05:12:57;;;;;;;;;;;;;;;9.93;100.00;97856.16;107602;1266;59682;-70
2022/10/26 05:15:26;;;;;;;;;;;;;;;9.93;100.00;97857.92;107621;1266;59734;-70
2022/10/26 05:17:56;;;;;;;;;;;;;;;9.95;100.00;97857.27;107665;1266;71515;-70
2022/10/26 05:20:29;;;;;;;;;;;;;;;9.98;100.00;97858.68;107640;1268;69152;-71
2022/10/26 05:23:00;;;;;;;;;;;;;;;10.01;100.00;97860.77;107653;1266;69350;-71
2022/10/26 05:25:30;;;;;;;;;;;;;;;10.05;100.00;97862.75;107685;1268;59761;-71
2022/10/26 05:28:00;;;;;;;;;;;;;;;10.09;100.00;97864.77;107610;1269;59741;-71
2022/10/26 05:30:29;;;;;;;;;;;;;;;10.13;100.00;97867.66;107658;1266;71508;-72
2022/10/26 05:32:58;;;;;;;;;;;;;;;10.17;100.00;97865.84;107699;1264;67635;-72
2022/10/26 05:35:27;;;;;;;;;;;;;;;10.21;100.00;97868.67;107653;1268;69487;-72
2022/10/26 05:37:55;;;;;;;;;;;;;;;10.25;100.00;97869.53;107668;1266;59772;-72
2022/10/26 05:40:24;;;;;;;;;;;;;;;10.29;100.00;97874.52;107619;1268;59736;-72
2022/10/26 05:42:58;;;;;;;;;;;;;;;10.31;100.00;97876.80;107686;1266;71981;-72
2022/10/26 05:45:27;;;;;;;;;;;;;;;10.34;100.00;97880.46;107645;1268;69236;-71
2022/10/26 05:47:56;;;;;;;;;;;;;;;10.37;100.00;97886.02;107615;1268;69915;-72
2022/10/26 05:50:30;;;;;;;;;;;;;;;10.41;100.00;97891.14;107595;1269;60071;-72
2022/10/26 05:52:59;;;;;;;;;;;;;;;10.44;100.00;97895.27;107631;1269;59699;-72
2022/10/26 05:55:28;;;;;;;;;;;;;;;10.49;100.00;97896.21;107594;1266;70864;-73
2022/10/26 05:57:56;;;;;;;;;;;;;;;10.52;100.00;97900.02;107630;1269;69834;-72
2022/10/26 06:00:26;;;;;;;;;;;;;;;10.56;100.00;97905.01;107643;1264;69506;-72
2022/10/26 06:02:55;;;;;;;;;;;;;;;10.59;100.00;97911.42;107667;1268;59802;-72
2022/10/26 06:05:26;;;;;;;;;;;;;;;10.61;100.00;97910.94;107639;1268;59688;-71
2022/10/26 06:07:55;;;;;;;;;;;;;;;10.61;100.00;97911.92;107697;1264;70803;-72
2022/10/26 06:10:24;;;;;;;;;;;;;;;10.63;100.00;97913.92;107683;1267;69269;-72
2022/10/26 06:12:52;;;;;;;;;;;;;;;10.64;100.00;97918.89;107637;1268;69669;-72
2022/10/26 06:15:21;;;;;;;;;;;;;;;10.65;100.00;97924.25;107644;1268;60041;-72
2022/10/26 06:18:09;;;;;;;;;;;;;;;10.65;100.00;97924.29;107676;1269;59702;-72
2022/10/26 06:20:56;;;;;;;;;;;;;;;10.65;100.00;97928.27;107650;1268;71393;-72
2022/10/26 06:23:24;;;;;;;;;;;;;;;10.63;100.00;97930.13;107642;1264;69917;-72
2022/10/26 06:25:52;;;;;;;;;;;;;;;10.59;100.00;97932.65;107627;1266;68742;-71
2022/10/26 06:28:32;;;;;;;;;;;;;;;10.58;100.00;97938.15;107671;1265;59680;-71
2022/10/26 06:31:00;;;;;;;;;;;;;;;10.61;100.00;97938.42;107695;1264;59780;-71
2022/10/26 06:33:29;;;;;;;;;;;;;;;10.63;100.00;97940.07;107630;1266;71525;-71
2022/10/26 06:36:12;;;;;;;;;;;;;;;10.72;100.00;97940.55;107599;1268;69339;-71
2022/10/26 06:38:43;;;;;;;;;;;;;;;10.77;100.00;97944.26;107641;1268;68929;-71
2022/10/26 06:41:17;;;;;;;;;;;;;;;10.81;100.00;97949.38;107664;1269;59811;-69
2022/10/26 06:43:47;;;;;;;;;;;;;;;10.80;100.00;97945.65;107646;1265;59676;-69
2022/10/26 06:46:15;;;;;;;;;;;;;;;10.78;100.00;97944.84;107673;1268;72058;-69
2022/10/26 06:48:52;;;;;;;;;;;;;;;10.85;100.00;97947.55;107655;1268;69197;-69
2022/10/26 06:51:22;;;;;;;;;;;;;;;10.92;100.00;97950.94;107630;1266;70240;-69
2022/10/26 06:53:56;;;;;;;;;;;;;;;10.93;100.00;97957.64;107609;1264;59782;-69
2022/10/26 06:56:25;;;;;;;;;;;;;;;10.93;100.00;97958.02;107669;1266;59776;-70
2022/10/26 06:58:55;;;;;;;;;;;;;;;10.93;100.00;97960.98;107593;1268;71235;-70
2022/10/26 07:01:23;;;;;;;;;;;;;;;10.95;100.00;97956.64;107615;1266;69997;-70
2022/10/26 07:03:51;;;;;;;;;;;;;;;11.01;100.00;97957.64;107589;1268;69990;-70
2022/10/26 07:06:20;;;;;;;;;;;;;;;11.07;100.00;97960.56;107607;1264;59698;-69
2022/10/26 07:08:49;;;;;;;;;;;;;;;11.12;100.00;97958.70;107620;1269;59664;-69
2022/10/26 07:11:17;;;;;;;;;;;;;;;11.19;100.00;97957.01;107646;1265;72086;-69
2022/10/26 07:13:45;;;;;;;;;;;;;;;11.31;100.00;97955.52;107614;1264;68380;-69
2022/10/26 07:16:14;;;;;;;;;;;;;;;11.42;100.00;97960.47;107600;1268;69348;-70
2022/10/26 07:18:42;;;;;;;;;;;;;;;11.58;100.00;97959.75;107632;1269;59724;-71
2022/10/26 07:21:10;;;;;;;;;;;;;;;11.70;100.00;97959.65;107626;1268;59713;-70
2022/10/26 07:23:39;;;;;;;;;;;;;;;11.87;100.00;97956.41;107631;1265;71835;-70
2022/10/26 07:26:07;;;;;;;;;;;;;;;12.07;100.00;97947.64;107610;1266;69966;-70
2022/10/26 07:28:36;;;;;;;;;;;;;;;12.44;100.00;97946.28;107159;1268;69175;-71
2022/10/26 07:31:04;;;;;;;;;;;;;;;12.94;99.39;97941.71;107625;1268;60056;-71
2022/10/26 07:33:32;;;;;;;;;;;;;;;13.51;95.36;97938.23;107591;1269;59761;-71
2022/10/26 07:36:09;;;;;;;;;;;;;;;14.08;91.56;97933.73;107698;1268;71388;-71
2022/10/26 07:38:38;;;;;;;;;;;;;;;14.71;88.60;97936.97;107659;1266;69800;-70
2022/10/26 07:41:06;;;;;;;;;;;;;;;15.26;86.47;97939.65;107582;1264;68807;-70
2022/10/26 07:43:35;;;;;;;;;;;;;;;15.57;81.33;97936.50;107598;1268;59719;-72
2022/10/26 07:46:04;;;;;;;;;;;;;;;16.36;82.46;97942.17;107594;1264;59699;-71
2022/10/26 07:48:32;;;;;;;;;;;;;;;17.22;83.37;97953.52;107643;1269;70612;-71
2022/10/26 07:51:01;;;;;;;;;;;;;;;18.03;79.85;97952.71;107645;1264;68344;-71
2022/10/26 07:53:30;;;;;;;;;;;;;;;18.33;68.73;97949.69;107669;1266;70045;-71
2022/10/26 07:55:58;;;;;;;;;;;;;;;18.12;69.41;97953.41;107593;1266;59772;-70
2022/10/26 07:58:27;;;;;;;;;;;;;;;17.63;68.61;97955.55;107629;1268;59710;-70
2022/10/26 08:00:56;;;;;;;;;;;;;;;16.90;70.53;97960.46;107650;1265;72042;-70
2022/10/26 08:03:24;;;;;;;;;;;;;;;15.94;73.54;97962.89;107624;1268;69543;-70
2022/10/26 08:05:54;;;;;;;;;;;;;;;15.58;75.39;97964.05;107622;1268;70029;-70
2022/10/26 08:08:23;;;;;;;;;;;;;;;15.58;76.47;97960.19;107626;1264;59711;-70
2022/10/26 08:10:51;;;;;;;;;;;;;;;15.51;76.45;97963.88;107644;1264;59661;-70
2022/10/26 08:13:20;;;;;;;;;;;;;;;15.35;77.35;97960.85;107680;1268;71443;-69
2022/10/26 08:15:48;;;;;;;;;;;;;;;15.31;77.58;97961.73;107596;1266;70022;-70
2022/10/26 08:18:17;;;;;;;;;;;;;;;15.08;77.83;97956.58;107639;1266;70468;-70
2022/10/26 08:20:45;;;;;;;;;;;;;;;15.10;78.76;97956.75;107660;1268;59841;-70
2022/10/26 08:23:14;;;;;;;;;;;;;;;15.32;78.45;97959.88;107604;1269;59704;-70
2022/10/26 08:25:42;;;;;;;;;;;;;;;15.67;77.67;97961.83;107618;1264;71375;-72
2022/10/26 08:28:11;;;;;;;;;;;;;;;16.03;74.20;97966.36;107667;1268;69836;-70
2022/10/26 08:30:39;;;;;;;;;;;;;;;16.26;74.64;97963.11;107588;1264;69409;-70
2022/10/26 08:33:09;;;;;;;;;;;;;;;16.25;73.76;97968.51;107640;1266;59715;-70
2022/10/26 08:35:37;;;;;;;;;;;;;;;16.21;72.86;97973.38;107636;1264;59668;-70
2022/10/26 08:38:06;;;;;;;;;;;;;;;16.15;73.24;97977.27;107605;1266;71874;-71
2022/10/26 08:40:36;;;;;;;;;;;;;;;16.09;72.72;97980.80;107602;1265;70055;-70
2022/10/26 08:43:23;;;;;;;;;;;;;;;16.04;72.90;97984.41;107644;1265;68481;-70
2022/10/26 08:45:55;;;;;;;;;;;;;;;15.89;72.19;97988.42;107636;1268;59765;-70
2022/10/26 08:48:27;;;;;;;;;;;;;;;15.83;72.62;97988.45;107666;1268;59773;-70
2022/10/26 08:50:59;;;;;;;;;;;;;;;15.67;71.89;97989.59;107645;1264;72003;-70
2022/10/26 08:53:31;;;;;;;;;;;;;;;15.53;72.04;97989.36;107676;1268;68236;-70
2022/10/26 08:56:25;;;;;;;;;;;;;;;15.49;73.44;97992.50;107625;1268;69380;-70
2022/10/26 08:59:12;;;;;;;;;;;;;;;15.45;74.06;97998.30;107597;1264;59712;-70
2022/10/26 09:01:41;;;;;;;;;;;;;;;15.32;73.80;97995.86;107635;1265;59810;-70
2022/10/26 09:04:11;;;;;;;;;;;;;;;15.21;73.63;97996.73;107583;1270;71785;-70
2022/10/26 09:06:56;;;;;;;;;;;;;;;15.09;75.20;97998.82;107662;1266;69274;-70
2022/10/26 09:09:30;;;;;;;;;;;;;;;15.10;75.70;97995.61;107668;1264;70324;-70
2022/10/26 09:12:08;;;;;;;;;;;;;;;15.17;75.60;97996.73;107608;1268;59716;-70
2022/10/26 09:15:03;;;;;;;;;;;;;;;15.27;75.93;97998.40;107669;1265;59759;-70
2022/10/26 09:17:34;;;;;;;;;;;;;;;15.46;76.01;98002.08;107665;1268;71426;-70
2022/10/26 09:20:25;;;;;;;;;;;;;;;15.63;75.86;98002.27;107600;1269;68749;-70
2022/10/26 09:23:12;;;;;;;;;;;;;;;15.87;75.55;98001.80;107663;1264;68720;-70
2022/10/26 09:25:48;;;;;;;;;;;;;;;16.06;75.34;97999.71;107658;1268;59778;-70
2022/10/26 09:28:17;;;;;;;;;;;;;;;16.18;74.34;97994.55;107627;1266;59709;-70
2022/10/26 09:30:46;;;;;;;;;;;;;;;16.08;73.72;97989.80;107663;1268;71078;-70
2022/10/26 09:33:16;;;;;;;;;;;;;;;15.96;73.63;97991.57;107664;1268;69891;-71
2022/10/26 09:35:45;;;;;;;;;;;;;;;16.54;73.41;97995.14;107656;1264;69947;-71
2022/10/26 09:38:33;;;;;;;;;;;;;;;17.66;69.48;97988.09;107605;1268;59727;-71
2022/10/26 09:41:20;;;;;;;;;;;;;;;18.81;64.93;97985.93;107653;1268;59716;-71
2022/10/26 09:43:56;;;;;;;;;;;;;;;19.73;60.96;97989.36;107636;1266;72205;-72
2022/10/26 09:46:33;;;;;;;;;;;;;;;20.71;56.79;97986.05;107625;1268;68190;-70
2022/10/26 09:49:07;;;;;;;;;;;;;;;20.96;56.23;97989.60;107652;1268;69666;-71
2022/10/26 09:51:37;;;;;;;;;;;;;;;20.90;57.00;97988.33;107621;1266;59735;-70
2022/10/26 09:54:12;;;;;;;;;;;;;;;20.49;55.04;97993.59;107627;1268;59712;-70
2022/10/26 09:56:42;;;;;;;;;;;;;;;20.32;57.37;97999.24;107590;1266;72169;-70
2022/10/26 09:59:12;;;;;;;;;;;;;;;20.16;57.43;97997.10;107647;1264;68587;-70
2022/10/26 10:01:40;;;;;;;;;;;;;;;20.04;57.25;97997.36;107681;1268;68545;-70
2022/10/26 10:04:10;;;;;;;;;;;;;;;19.93;56.34;97999.63;107657;1268;59770;-70
2022/10/26 10:06:39;;;;;;;;;;;;;;;20.00;57.35;98002.58;107689;1265;59739;-70
2022/10/26 10:09:15;;;;;;;;;;;;;;;19.75;56.62;97998.05;107661;1264;71845;-72
2022/10/26 10:11:53;;;;;;;;;;;;;;;19.05;57.67;98003.73;107625;1265;68535;-70
2022/10/26 10:14:23;;;;;;;;;;;;;;;18.82;58.88;98003.36;107624;1266;69848;-71
2022/10/26 10:16:54;;;;;;;;;;;;;;;18.38;60.16;98010.63;107643;1268;59726;-70
2022/10/26 10:19:24;;;;;;;;;;;;;;;18.01;60.61;98012.48;107645;1268;60055;-72
2022/10/26 10:21:55;;;;;;;;;;;;;;;17.79;61.59;98015.41;107632;1268;71869;-72
2022/10/26 10:24:31;;;;;;;;;;;;;;;17.70;62.44;98014.64;107658;1264;68507;-70
2022/10/26 10:27:14;;;;;;;;;;;;;;;17.42;63.66;98013.30;107645;1266;69311;-70
2022/10/26 10:29:48;;;;;;;;;;;;;;;17.17;63.92;98012.47;107620;1265;59713;-70
2022/10/26 10:32:26;;;;;;;;;;;;;;;17.12;64.44;98015.36;107647;1265;59712;-70
2022/10/26 10:34:55;;;;;;;;;;;;;;;17.10;65.25;98013.66;107655;1268;71383;-70
2022/10/26 10:37:26;;;;;;;;;;;;;;;17.00;65.23;98011.86;107651;1268;68471;-70
2022/10/26 10:40:02;;;;;;;;;;;;;;;17.01;65.44;98011.95;107670;1264;69939;-70
2022/10/26 10:42:38;;;;;;;;;;;;;;;17.12;65.24;98011.84;107610;1266;59715;-70
2022/10/26 10:45:18;;;;;;;;;;;;;;;17.25;64.96;98008.94;107655;1268;59719;-70
2022/10/26 10:47:58;;;;;;;;;;;;;;;17.90;64.27;98002.61;107673;1264;71909;-70
2022/10/26 10:50:27;;;;;;;;;;;;;;;18.32;62.68;98000.27;107687;1264;69425;-70
2022/10/26 10:53:18;;;;;;;;;;;;;;;18.61;61.98;98002.52;107614;1264;69352;-70
2022/10/26 10:55:52;;;;;;;;;;;;;;;18.34;60.49;98004.41;107601;1265;60111;-70
2022/10/26 10:58:26;;;;;;;;;;;;;;;17.98;60.93;98008.88;107653;1265;59729;-72
2022/10/26 11:00:55;;;;;;;;;;;;;;;17.86;60.74;98013.39;107616;1266;71645;-70
2022/10/26 11:03:23;;;;;;;;;;;;;;;17.89;61.44;98012.39;107654;1268;69655;-71
2022/10/26 11:06:11;;;;;;;;;;;;;;;17.94;61.78;98005.93;107653;1269;70038;-70
2022/10/26 11:08:46;;;;;;;;;;;;;;;18.62;59.56;98002.46;107665;1268;59776;-71
2022/10/26 11:11:21;;;;;;;;;;;;;;;18.63;57.68;98001.44;107668;1268;59773;-70
2022/10/26 11:13:59;;;;;;;;;;;;;;;18.65;57.26;98004.31;107671;1264;70720;-70
2022/10/26 11:16:30;;;;;;;;;;;;;;;19.06;56.85;98007.53;107621;1266;69305;-70
2022/10/26 11:19:11;;;;;;;;;;;;;;;19.66;56.30;98008.14;107644;1266;69344;-70
2022/10/26 11:21:43;;;;;;;;;;;;;;;20.41;52.63;98005.76;107654;1268;59755;-70
2022/10/26 11:24:12;;;;;;;;;;;;;;;20.67;52.50;98005.62;107646;1268;59779;-70
2022/10/26 11:26:51;;;;;;;;;;;;;;;20.52;52.09;98004.47;107642;1265;71840;-70
2022/10/26 11:29:40;;;;;;;;;;;;;;;19.78;53.23;98008.82;107630;1268;68481;-70
2022/10/26 11:32:11;;;;;;;;;;;;;;;19.05;54.29;98008.56;107620;1265;69958;-70
2022/10/26 11:34:59;;;;;;;;;;;;;;;18.32;55.83;98010.42;107643;1264;59785;-70
2022/10/26 11:37:28;;;;;;;;;;;;;;;18.81;55.50;98010.89;107658;1268;59791;-70
2022/10/26 11:40:15;;;;;;;;;;;;;;;19.71;53.78;98006.77;107623;1268;71871;-69
2022/10/26 11:42:46;;;;;;;;;;;;;;;20.74;50.97;98002.94;107610;1268;69427;-69
2022/10/26 11:45:19;;;;;;;;;;;;;;;21.43;48.97;98004.73;107625;1266;69359;-70
2022/10/26 11:47:51;;;;;;;;;;;;;;;22.28;46.68;97998.95;107620;1264;59775;-67
2022/10/26 11:50:23;;;;;;;;;;;;;;;22.90;45.90;97997.20;107629;1268;59727;-71
2022/10/26 11:52:56;;;;;;;;;;;;;;;22.35;44.79;97999.49;107676;1266;72081;-70
2022/10/26 11:55:24;;;;;;;;;;;;;;;21.45;46.97;98007.35;107615;1264;69683;-72
2022/10/26 11:57:53;;;;;;;;;;;;;;;21.03;47.89;98004.95;107620;1266;69333;-71
2022/10/26 12:00:22;;;;;;;;;;;;;;;20.36;49.26;98003.13;107656;1266;59793;-70
2022/10/26 12:02:54;;;;;;;;;;;;;;;19.69;50.41;98003.41;107648;1264;59786;-70
2022/10/26 12:05:43;;;;;;;;;;;;;;;19.08;51.76;98003.88;107622;1268;72110;-69
2022/10/26 12:08:32;;;;;;;;;;;;;;;18.98;53.15;98005.00;107658;1265;69865;-69
2022/10/26 12:11:08;;;;;;;;;;;;;;;19.14;52.90;98007.50;107653;1264;69293;-70
2022/10/26 12:13:46;;;;;;;;;;;;;;;19.53;52.17;98005.38;107613;1264;59862;-71
2022/10/26 12:16:28;;;;;;;;;;;;;;;19.76;51.06;98007.69;107629;1268;59759;-70
2022/10/26 12:19:00;;;;;;;;;;;;;;;19.57;51.21;98006.41;107651;1268;71503;-70
2022/10/26 12:21:30;;;;;;;;;;;;;;;19.65;52.09;98008.59;107665;1265;69162;-71
2022/10/26 12:24:21;;;;;;;;;;;;;;;20.03;51.14;98006.88;107619;1268;70150;-70
2022/10/26 12:26:50;;;;;;;;;;;;;;;20.43;50.41;98010.02;107583;1265;59782;-71
2022/10/26 12:29:27;;;;;;;;;;;;;;;20.68;49.18;98007.62;107622;1268;59740;-70
2022/10/26 12:31:56;;;;;;;;;;;;;;;20.81;47.96;98011.23;107592;1268;71807;-70
2022/10/26 12:34:28;;;;;;;;;;;;;;;20.80;48.10;98011.11;107666;1268;69873;-70
2022/10/26 12:36:56;;;;;;;;;;;;;;;20.39;48.78;98019.12;107697;1268;70026;-70
2022/10/26 12:39:32;;;;;;;;;;;;;;;20.26;49.42;98023.66;107615;1268;59726;-70
2022/10/26 12:42:03;;;;;;;;;;;;;;;19.76;50.74;98026.42;107646;1264;59716;-70
2022/10/26 12:44:33;;;;;;;;;;;;;;;19.55;51.84;98030.98;107602;1268;71835;-70
2022/10/26 12:47:03;;;;;;;;;;;;;;;19.11;53.32;98032.19;107590;1264;69269;-70
2022/10/26 12:49:50;;;;;;;;;;;;;;;19.19;53.59;98030.84;107596;1264;68418;-69
2022/10/26 12:52:26;;;;;;;;;;;;;;;18.87;54.23;98032.70;107626;1268;59767;-69
2022/10/26 12:55:13;;;;;;;;;;;;;;;18.67;54.73;98032.86;107678;1268;59666;-69
2022/10/26 12:57:42;;;;;;;;;;;;;;;18.98;53.81;98029.17;107601;1264;71771;-72
2022/10/26 13:00:15;;;;;;;;;;;;;;;18.73;53.57;98029.47;107627;1265;69537;-69